Clifton, North Carolina
Current Conditions -  °F | °C
As of 11:15 AM on Thursday 29 Jan 2015 (Local Time) from KGEV Reporting Station
Scattered Clouds Scattered Clouds  
Wind Chill: 33°   Ceiling: Unl
Heat Index: 37°   Visibility: 10mi
Dew Point: 16°   Wind: 6mph
Humidity: 41%   Direction: 170°S
Pressure: 30.13"   Gusts: NA
Location:  36.4565°N, 81.5501°W
Report Text: KGEV 291615Z AUTO 17005KT 10SM SCT120 03/M09 A3013 RMK AO2 T00301090
Loading
Personal Weather Stations






























Interactive Weather Map New forecast layout! Learn more

10-Day Weather Forecast

Advertisements
Track Severe Weather on mobile